Time;durP1;ratioP1;P1;durP2;ratioP2;P2;SDS_P1;SDS_P2;PMS_P1;PMS_P2;Temp;Humidity;BMP_temperature;BMP_pressure;BME280_temperature;BME280_humidity;BME280_pressure;Samples;Min_cycle;Max_cycle;Signal;HPM_P1;HPM_P2
2023/07/18 00:01:22;;;;;;;7.88;2.30;;;;;;;17.45;100.00;102171.63;5109372;28;20023;-67
2023/07/18 00:03:48;;;;;;;9.90;2.20;;;;;;;17.47;100.00;102169.75;5090129;28;20024;-69
2023/07/18 00:06:14;;;;;;;10.95;1.90;;;;;;;17.43;100.00;102167.22;5089963;28;20024;-66
2023/07/18 00:08:40;;;;;;;11.75;2.38;;;;;;;17.42;100.00;102175.25;5090182;28;20099;-68
2023/07/18 00:11:05;;;;;;;5.68;2.08;;;;;;;17.46;100.00;102168.03;5089305;28;20032;-66
2023/07/18 00:13:30;;;;;;;10.55;2.33;;;;;;;17.43;100.00;102167.22;5088272;28;20073;-67
2023/07/18 00:15:56;;;;;;;9.23;2.10;;;;;;;17.43;100.00;102161.03;5090141;28;20032;-66
2023/07/18 00:18:21;;;;;;;14.40;2.55;;;;;;;17.42;100.00;102161.94;5122803;27;20340;-67
2023/07/18 00:20:46;;;;;;;9.75;2.33;;;;;;;17.37;100.00;102161.28;5089647;28;20031;-67
2023/07/18 00:23:12;;;;;;;7.57;1.67;;;;;;;17.32;100.00;102158.81;5089391;28;20036;-62
2023/07/18 00:25:37;;;;;;;7.03;1.83;;;;;;;17.30;100.00;102160.66;5089491;28;20047;-68
2023/07/18 00:28:03;;;;;;;9.18;2.38;;;;;;;17.21;100.00;102156.59;5088345;28;20081;-65
2023/07/18 00:30:28;;;;;;;7.10;2.25;;;;;;;17.16;100.00;102154.09;5089972;28;20031;-63
2023/07/18 00:32:55;;;;;;;6.55;2.00;;;;;;;17.14;100.00;102155.97;5098469;28;20636;-68
2023/07/18 00:35:20;;;;;;;11.52;2.55;;;;;;;17.09;100.00;102151.75;5109486;28;20390;-66
2023/07/18 00:37:45;;;;;;;8.07;1.63;;;;;;;17.04;100.00;102150.13;5108718;28;20019;-67
2023/07/18 00:40:12;;;;;;;9.20;2.35;;;;;;;17.03;100.00;102150.16;5109504;28;20042;-67
2023/07/18 00:42:38;;;;;;;6.88;1.80;;;;;;;16.91;100.00;102156.84;5104851;28;20454;-68
2023/07/18 00:45:05;;;;;;;9.20;2.00;;;;;;;16.87;100.00;102157.91;5089152;28;20016;-67
2023/07/18 00:47:30;;;;;;;10.93;2.55;;;;;;;16.82;100.00;102154.59;5088910;28;20640;-66
2023/07/18 00:49:56;;;;;;;7.38;2.13;;;;;;;16.72;100.00;102162.03;5107464;28;20032;-64
2023/07/18 00:52:21;;;;;;;15.07;2.47;;;;;;;16.65;100.00;102153.44;5109343;28;20050;-69
2023/07/18 00:54:47;;;;;;;11.60;2.90;;;;;;;16.54;100.00;102165.38;5086811;28;20028;-61
2023/07/18 00:57:12;;;;;;;14.57;2.88;;;;;;;16.41;100.00;102164.94;5086478;28;20076;-66
2023/07/18 00:59:38;;;;;;;9.68;2.17;;;;;;;16.34;100.00;102155.47;5087816;28;20048;-67
2023/07/18 01:02:05;;;;;;;8.43;2.63;;;;;;;16.26;100.00;102158.41;5087822;28;20051;-68
2023/07/18 01:04:31;;;;;;;7.82;2.25;;;;;;;16.22;100.00;102159.44;5105129;28;20016;-67
2023/07/18 01:06:57;;;;;;;10.32;2.00;;;;;;;16.17;100.00;102159.63;5108284;28;20023;-67
2023/07/18 01:09:22;;;;;;;9.63;2.35;;;;;;;16.12;100.00;102161.59;5107063;28;20425;-66
2023/07/18 01:11:47;;;;;;;10.48;2.80;;;;;;;16.10;100.00;102159.91;5108688;28;20054;-67
2023/07/18 01:14:13;;;;;;;10.98;2.35;;;;;;;16.10;100.00;102163.44;5092936;28;20411;-63
2023/07/18 01:16:38;;;;;;;8.00;2.53;;;;;;;16.04;100.00;102153.88;5088745;28;20046;-66
2023/07/18 01:19:04;;;;;;;12.00;2.20;;;;;;;16.01;100.00;102154.00;5087958;28;20032;-68
2023/07/18 01:21:29;;;;;;;10.00;2.20;;;;;;;15.95;100.00;102148.00;5088988;28;20028;-67
2023/07/18 01:23:54;;;;;;;7.22;2.08;;;;;;;15.94;100.00;102143.59;5100633;28;20034;-67
2023/07/18 01:26:20;;;;;;;9.60;2.20;;;;;;;15.95;100.00;102142.69;5109084;28;20051;-68
2023/07/18 01:28:45;;;;;;;10.63;2.55;;;;;;;15.88;100.00;102142.91;5107459;28;20115;-66
2023/07/18 01:31:11;;;;;;;9.48;2.38;;;;;;;15.83;100.00;102144.84;5108580;28;20449;-63
2023/07/18 01:33:37;;;;;;;12.25;2.38;;;;;;;15.75;100.00;102137.13;5108417;28;20032;-67
2023/07/18 01:36:02;;;;;;;6.88;2.10;;;;;;;15.71;100.00;102140.84;5107989;28;20085;-69
2023/07/18 01:38:30;;;;;;;10.27;2.47;;;;;;;15.69;100.00;102139.16;5108892;28;20027;-62
2023/07/18 01:40:57;;;;;;;6.55;1.92;;;;;;;15.66;100.00;102138.34;5109168;28;20027;-66
2023/07/18 01:43:23;;;;;;;5.57;1.77;;;;;;;15.65;100.00;102135.72;5098956;28;20056;-66
2023/07/18 01:45:48;;;;;;;9.13;2.10;;;;;;;15.64;100.00;102134.88;5088309;28;20523;-66
2023/07/18 01:48:14;;;;;;;6.15;2.28;;;;;;;15.64;100.00;102134.00;5087802;28;20028;-66
2023/07/18 01:50:39;;;;;;;8.75;1.65;;;;;;;15.65;100.00;102131.28;5087325;28;20016;-66
2023/07/18 01:53:04;;;;;;;12.85;2.60;;;;;;;15.61;100.00;102127.00;5102814;28;20032;-67
2023/07/18 01:55:30;;;;;;;5.80;1.92;;;;;;;15.60;100.00;102117.31;5087094;28;20470;-67
2023/07/18 01:57:55;;;;;;;5.78;2.20;;;;;;;15.66;100.00;102113.56;5090463;28;20024;-68
2023/07/18 02:00:21;;;;;;;9.52;2.05;;;;;;;15.62;100.00;102120.78;5108488;28;20047;-68
2023/07/18 02:02:48;;;;;;;8.75;1.90;;;;;;;15.62;100.00;102119.91;5108182;28;20110;-67
2023/07/18 02:05:16;;;;;;;7.30;2.10;;;;;;;15.64;100.00;102123.38;5108838;28;20038;-67
2023/07/18 02:07:41;;;;;;;7.75;2.38;;;;;;;15.62;100.00;102119.91;5107649;28;20493;-65
2023/07/18 02:10:07;;;;;;;8.55;2.47;;;;;;;15.62;100.00;102120.78;5109024;28;20024;-67
2023/07/18 02:12:32;;;;;;;9.57;2.03;;;;;;;15.64;100.00;102116.28;5107190;28;20126;-68
2023/07/18 02:14:57;;;;;;;7.60;2.03;;;;;;;15.68;100.00;102118.84;5108604;28;20023;-63
2023/07/18 02:17:23;;;;;;;8.50;2.20;;;;;;;15.72;100.00;102112.47;5108981;28;20430;-67
2023/07/18 02:19:48;;;;;;;9.90;2.25;;;;;;;15.71;100.00;102114.25;5107351;28;20031;-67
2023/07/18 02:22:14;;;;;;;8.75;1.92;;;;;;;15.69;100.00;102107.28;5108366;28;20055;-65
2023/07/18 02:24:40;;;;;;;10.30;2.25;;;;;;;15.65;100.00;102109.16;5108082;28;20030;-67
2023/07/18 02:27:06;;;;;;;8.40;2.50;;;;;;;15.64;100.00;102105.66;5108004;28;20413;-67
2023/07/18 02:29:31;;;;;;;8.93;2.22;;;;;;;15.58;100.00;102097.91;5107263;28;20027;-63
2023/07/18 02:31:57;;;;;;;7.82;2.20;;;;;;;15.57;100.00;102096.16;5108436;28;20522;-67
2023/07/18 02:34:22;;;;;;;7.30;2.13;;;;;;;15.54;100.00;102099.78;5107501;28;20020;-68
2023/07/18 02:36:48;;;;;;;9.57;2.20;;;;;;;15.53;100.00;102107.78;5107913;28;20426;-68
2023/07/18 02:39:15;;;;;;;9.38;2.20;;;;;;;15.44;100.00;102102.81;5107512;28;20474;-67
2023/07/18 02:41:40;;;;;;;7.85;2.33;;;;;;;15.39;100.00;102109.13;5091585;28;20028;-64
2023/07/18 02:44:05;;;;;;;9.95;2.33;;;;;;;15.37;100.00;102103.03;5087925;28;20466;-67
2023/07/18 02:46:31;;;;;;;14.40;2.35;;;;;;;15.35;100.00;102104.00;5087338;28;20028;-69
2023/07/18 02:48:56;;;;;;;5.10;2.13;;;;;;;15.35;100.00;102111.97;5088323;28;20103;-62
2023/07/18 02:51:22;;;;;;;7.93;1.88;;;;;;;15.30;100.00;102109.47;5092112;28;20554;-66
2023/07/18 02:53:49;;;;;;;5.93;2.08;;;;;;;15.29;100.00;102108.59;5107995;28;20501;-67
2023/07/18 02:56:15;;;;;;;9.85;2.15;;;;;;;15.27;100.00;102110.41;5091822;28;20056;-66
2023/07/18 02:58:41;;;;;;;6.28;1.85;;;;;;;15.24;100.00;102109.66;5092297;28;20019;-66
2023/07/18 03:01:07;;;;;;;7.63;1.98;;;;;;;15.22;100.00;102114.16;5107374;28;20109;-67
2023/07/18 03:03:34;;;;;;;8.48;2.03;;;;;;;15.26;100.00;102105.19;5107356;28;20214;-69
2023/07/18 03:05:59;;;;;;;6.70;1.90;;;;;;;15.26;100.00;102113.16;5108043;28;20430;-67
2023/07/18 03:08:25;;;;;;;3.50;2.00;;;;;;;15.32;100.00;102109.41;5110422;28;20058;-68
2023/07/18 03:10:51;;;;;;;4.53;1.90;;;;;;;15.33;100.00;102103.19;5110508;28;20030;-65
2023/07/18 03:13:16;;;;;;;10.18;2.08;;;;;;;15.35;100.00;102107.50;5110553;28;20027;-68
2023/07/18 03:15:42;;;;;;;8.27;2.00;;;;;;;15.37;100.00;102108.34;5111042;28;20028;-66
2023/07/18 03:18:08;;;;;;;6.53;2.10;;;;;;;15.42;100.00;102102.88;5110981;28;20067;-67
2023/07/18 03:20:33;;;;;;;5.22;2.20;;;;;;;15.45;100.00;102107.22;5110995;27;20028;-68
2023/07/18 03:22:59;;;;;;;8.48;2.65;;;;;;;15.46;100.00;102106.28;5111182;28;20081;-62
2023/07/18 03:25:24;;;;;;;6.82;2.03;;;;;;;15.47;100.00;102108.03;5111654;28;20051;-66
2023/07/18 03:27:50;;;;;;;8.13;2.03;;;;;;;15.47;100.00;102100.06;5110071;28;20099;-65
2023/07/18 03:30:16;;;;;;;9.65;1.98;;;;;;;15.40;100.00;102102.94;5109830;28;20024;-66
2023/07/18 03:32:42;;;;;;;5.38;2.28;;;;;;;15.39;100.00;102106.47;5110452;28;20023;-67
2023/07/18 03:35:09;;;;;;;10.10;2.20;;;;;;;15.38;100.00;102107.41;5111315;28;20027;-68
2023/07/18 03:37:35;;;;;;;5.35;1.52;;;;;;;15.37;100.00;102110.13;5111148;28;20024;-67
2023/07/18 03:40:01;;;;;;;5.53;2.05;;;;;;;15.33;100.00;102106.72;5110768;28;20436;-63
2023/07/18 03:42:26;;;;;;;6.45;2.10;;;;;;;15.29;100.00;102102.41;5110675;27;20027;-67
2023/07/18 03:44:52;;;;;;;6.22;1.95;;;;;;;15.33;100.00;102113.81;5109336;28;20015;-66
2023/07/18 03:47:18;;;;;;;5.28;2.03;;;;;;;15.32;100.00;102112.94;5110125;28;20129;-68
2023/07/18 03:49:43;;;;;;;6.97;2.22;;;;;;;15.29;100.00;102118.34;5110424;28;20110;-68
2023/07/18 03:52:09;;;;;;;6.68;2.20;;;;;;;15.30;100.00;102109.47;5110782;28;20102;-67
2023/07/18 03:54:34;;;;;;;11.73;2.28;;;;;;;15.26;100.00;102107.84;5110228;28;20031;-67
2023/07/18 03:57:00;;;;;;;5.40;1.77;;;;;;;15.25;100.00;102114.06;5110032;28;20660;-69
2023/07/18 03:59:25;;;;;;;5.45;1.85;;;;;;;15.17;100.00;102106.34;5110604;28;20051;-69
2023/07/18 04:01:51;;;;;;;4.95;2.05;;;;;;;15.15;100.00;102109.03;5110514;28;20019;-67
2023/07/18 04:04:17;;;;;;;8.43;1.88;;;;;;;15.12;100.00;102111.84;5110243;28;20023;-69
2023/07/18 04:06:45;;;;;;;7.10;2.08;;;;;;;15.07;100.00;102113.75;5109789;28;20049;-68
2023/07/18 04:09:10;;;;;;;12.35;2.38;;;;;;;15.08;100.00;102112.81;5110124;28;20526;-62
2023/07/18 04:11:37;;;;;;;6.93;1.92;;;;;;;15.08;100.00;102110.16;5109035;28;20098;-71
2023/07/18 04:14:02;;;;;;;3.15;1.80;;;;;;;15.15;100.00;102110.84;5109018;28;20050;-68
2023/07/18 04:16:27;;;;;;;7.40;2.35;;;;;;;15.19;100.00;102107.16;5109489;28;20458;-67
2023/07/18 04:18:53;;;;;;;4.63;2.03;;;;;;;15.24;100.00;102102.59;5109573;28;20109;-69
2023/07/18 04:21:18;;;;;;;5.82;2.33;;;;;;;15.23;100.00;102108.78;5110527;28;20646;-68
2023/07/18 04:23:44;;;;;;;12.13;2.45;;;;;;;15.20;100.00;102102.75;5096093;28;20028;-64
2023/07/18 04:26:09;;;;;;;4.55;2.22;;;;;;;15.23;100.00;102097.31;5108393;28;20023;-66
2023/07/18 04:28:38;;;;;;;8.50;2.30;;;;;;;15.26;100.00;102100.72;5107656;28;20563;-68
2023/07/18 04:31:04;;;;;;;10.60;2.58;;;;;;;15.29;100.00;102102.41;5109827;28;20020;-63
2023/07/18 04:33:34;;;;;;;5.40;2.47;;;;;;;15.34;100.00;102099.59;5109573;27;20026;-70
2023/07/18 04:36:00;;;;;;;4.13;2.33;;;;;;;15.40;100.00;102094.97;5109596;28;20111;-68
2023/07/18 04:38:26;;;;;;;7.60;2.60;;;;;;;15.39;100.00;102093.19;5110438;28;20126;-70
2023/07/18 04:40:51;;;;;;;9.07;3.05;;;;;;;15.49;100.00;102095.56;5109248;28;20454;-67
2023/07/18 04:43:17;;;;;;;11.65;3.08;;;;;;;15.56;100.00;102093.56;5094070;28;20578;-68
2023/07/18 04:45:44;;;;;;;8.75;3.25;;;;;;;15.58;100.00;102092.59;5100121;28;20378;-67
2023/07/18 04:48:10;;;;;;;8.40;2.85;;;;;;;15.62;100.00;102088.88;5103718;28;20028;-68
2023/07/18 04:50:36;;;;;;;10.65;2.65;;;;;;;15.69;100.00;102084.25;5109231;28;20127;-66
2023/07/18 04:53:02;;;;;;;7.97;2.28;;;;;;;15.79;100.00;102080.31;5108449;28;20024;-67
2023/07/18 04:55:27;;;;;;;9.95;2.45;;;;;;;15.92;100.00;102079.84;5099973;28;20115;-68
2023/07/18 04:57:53;;;;;;;6.38;3.05;;;;;;;15.98;100.00;102082.31;5103190;28;20032;-70
2023/07/18 05:00:18;;;;;;;8.65;3.33;;;;;;;16.12;100.00;102081.81;5096646;27;20051;-68
2023/07/18 05:02:44;;;;;;;6.82;2.88;;;;;;;16.15;100.00;102076.41;5094273;28;20562;-68
2023/07/18 05:05:09;;;;;;;8.80;2.88;;;;;;;16.29;100.00;102072.34;5109289;28;20503;-67
2023/07/18 05:07:35;;;;;;;7.43;3.03;;;;;;;16.38;100.00;102079.09;5108131;28;20020;-69
2023/07/18 05:10:00;;;;;;;8.50;3.05;;;;;;;16.56;100.00;102074.84;5100522;28;20474;-67
2023/07/18 05:12:26;;;;;;;7.10;2.90;;;;;;;16.66;100.00;102075.34;5101460;28;20154;-67
2023/07/18 05:14:51;;;;;;;11.10;2.72;;;;;;;16.79;100.00;102073.91;5109159;28;20107;-70
2023/07/18 05:17:16;;;;;;;9.80;2.90;;;;;;;16.88;100.00;102069.13;5106532;28;20024;-71
2023/07/18 05:19:42;;;;;;;10.45;3.13;;;;;;;16.87;100.00;102059.44;5107751;28;20026;-69
2023/07/18 05:22:07;;;;;;;10.45;3.00;;;;;;;16.79;100.00;102065.94;5107349;28;20514;-70
2023/07/18 05:24:33;;;;;;;9.45;3.10;;;;;;;16.74;100.00;102059.06;5107523;28;20055;-66
2023/07/18 05:26:59;;;;;;;9.90;2.90;;;;;;;16.64;100.00;102059.44;5087530;28;20035;-67
2023/07/18 05:29:24;;;;;;;7.85;3.20;;;;;;;16.59;100.00;102064.09;5087810;28;20020;-70
2023/07/18 05:31:50;;;;;;;7.03;2.47;;;;;;;16.64;100.00;102070.09;5086081;28;20034;-68
2023/07/18 05:34:15;;;;;;;7.28;3.15;;;;;;;16.65;100.00;102074.47;5087258;28;20024;-70
2023/07/18 05:36:40;;;;;;;8.93;3.42;;;;;;;16.64;100.00;102080.72;5088343;28;20416;-69
2023/07/18 05:39:06;;;;;;;10.55;2.47;;;;;;;16.70;100.00;102078.75;5098271;28;20130;-62
2023/07/18 05:41:31;;;;;;;9.02;3.30;;;;;;;16.75;100.00;102082.09;5107266;28;20027;-67
2023/07/18 05:43:56;;;;;;;9.95;3.65;;;;;;;16.82;100.00;102085.38;5098935;28;20695;-69
2023/07/18 05:46:22;;;;;;;15.13;3.80;;;;;;;16.84;100.00;102086.16;5087948;28;20023;-74
2023/07/18 05:48:47;;;;;;;17.58;4.03;;;;;;;16.89;100.00;102086.84;5087139;28;20035;-62
2023/07/18 05:51:12;;;;;;;9.65;3.92;;;;;;;16.92;100.00;102086.75;5088582;28;20028;-69
2023/07/18 05:53:38;;;;;;;10.25;3.50;;;;;;;17.10;100.00;102089.59;5087819;28;20034;-68
2023/07/18 05:56:04;;;;;;;12.95;3.70;;;;;;;17.24;100.00;102086.34;5106283;28;20027;-70
2023/07/18 05:58:29;;;;;;;11.52;4.07;;;;;;;17.14;100.00;102088.53;5106602;28;20024;-68
2023/07/18 06:00:54;;;;;;;12.75;3.67;;;;;;;17.18;100.00;102090.13;5108526;28;20040;-67
2023/07/18 06:03:22;;;;;;;16.98;3.83;;;;;;;17.21;100.00;102086.47;5108252;28;20470;-70
2023/07/18 06:05:54;;;;;;;13.90;3.80;;;;;;;17.26;100.00;102087.16;5107530;28;20052;-70
2023/07/18 06:08:21;;;;;;;14.95;4.28;;;;;;;17.33;100.00;102088.63;5108407;28;20438;-66
2023/07/18 06:10:47;;;;;;;17.13;4.22;;;;;;;17.42;100.00;102085.56;5107779;28;20591;-61
2023/07/18 06:13:12;;;;;;;21.67;4.95;;;;;;;17.55;100.00;102093.88;5108226;28;20032;-65
2023/07/18 06:15:37;;;;;;;14.93;3.92;;;;;;;17.63;100.00;102098.00;5108397;28;20040;-64
2023/07/18 06:18:03;;;;;;;13.20;4.10;;;;;;;17.77;100.00;102100.06;5087198;28;20032;-66
2023/07/18 06:20:28;;;;;;;21.05;4.53;;;;;;;17.91;100.00;102102.97;5087703;28;20459;-65
2023/07/18 06:22:54;;;;;;;19.23;5.50;;;;;;;17.93;100.00;102105.56;5088410;28;20033;-65
2023/07/18 06:25:20;;;;;;;15.73;4.88;;;;;;;17.94;100.00;102108.16;5102210;28;20493;-64
2023/07/18 06:27:45;;;;;;;17.67;5.65;;;;;;;17.98;100.00;102103.56;5106196;28;20028;-64
2023/07/18 06:30:11;;;;;;;23.48;6.13;;;;;;;18.00;100.00;102111.50;5108857;28;20047;-64
2023/07/18 06:32:36;;;;;;;20.70;6.55;;;;;;;17.99;100.00;102115.97;5109197;28;20442;-64
2023/07/18 06:35:04;;;;;;;19.15;6.90;;;;;;;17.97;100.00;102114.31;5105125;28;20042;-65
2023/07/18 06:37:30;;;;;;;24.50;7.40;;;;;;;18.11;100.00;102116.38;5089142;28;20055;-66
2023/07/18 06:39:55;;;;;;;20.65;5.80;;;;;;;18.25;100.00;102115.75;5088804;28;20063;-64
2023/07/18 06:42:21;;;;;;;23.92;6.97;;;;;;;18.34;100.00;102103.78;5088712;28;20046;-65
2023/07/18 06:44:47;;;;;;;20.65;7.15;;;;;;;18.48;100.00;102106.66;5092142;28;20020;-65
2023/07/18 06:47:12;;;;;;;17.05;7.22;;;;;;;18.60;100.00;102105.19;5093230;28;20020;-65
2023/07/18 06:49:38;;;;;;;17.45;7.65;;;;;;;18.68;100.00;102105.72;5092621;28;20030;-65
2023/07/18 06:52:04;;;;;;;24.48;7.78;;;;;;;18.69;100.00;102110.09;5092745;28;20032;-65
2023/07/18 06:54:30;;;;;;;19.48;7.75;;;;;;;18.78;100.00;102103.44;5091690;28;20073;-66
2023/07/18 06:56:56;;;;;;;25.35;8.32;;;;;;;18.84;100.00;102101.44;5091231;28;20481;-66
2023/07/18 06:59:24;;;;;;;27.52;9.95;;;;;;;18.66;100.00;102096.91;5091612;28;20040;-65
2023/07/18 07:01:49;;;;;;;22.00;9.05;;;;;;;18.78;100.00;102095.44;5092123;28;20036;-65
2023/07/18 07:04:15;;;;;;;23.48;9.98;;;;;;;18.92;100.00;102099.22;5112334;28;20043;-64
2023/07/18 07:06:43;;;;;;;22.35;10.07;;;;;;;18.96;100.00;102094.63;5112171;28;20024;-64
2023/07/18 07:09:15;;;;;;;27.63;9.73;;;;;;;18.93;100.00;102092.94;5111198;28;20474;-64
2023/07/18 07:11:41;;;;;;;25.85;10.30;;;;;;;19.00;100.00;102093.53;5111813;27;20036;-63
2023/07/18 07:14:07;;;;;;;22.42;9.77;;;;;;;19.02;100.00;102097.84;5110415;28;20470;-69
2023/07/18 07:16:33;;;;;;;27.27;9.38;;;;;;;19.09;100.00;102095.78;5112045;28;20034;-63
2023/07/18 07:18:59;;;;;;;25.80;8.95;;;;;;;19.24;100.00;102096.81;5111799;28;20546;-70
2023/07/18 07:21:24;;;;;;;23.48;9.15;;;;;;;19.25;100.00;102089.63;5112175;28;20035;-62
2023/07/18 07:23:50;;;;;;;27.40;9.88;;;;;;;19.33;100.00;102084.78;5110908;28;20493;-66
2023/07/18 07:26:15;;;;;;;19.35;10.15;;;;;;;19.35;100.00;102080.19;5110566;28;20068;-67
2023/07/18 07:28:40;;;;;;;20.17;8.85;;;;;;;19.50;100.00;102083.03;5110605;28;20024;-68
2023/07/18 07:31:06;;;;;;;28.10;8.23;;;;;;;19.42;100.00;102089.63;5111222;28;20381;-64
2023/07/18 07:33:31;;;;;;;25.63;9.93;;;;;;;19.58;100.00;102086.16;5110478;28;20019;-71
2023/07/18 07:35:57;;;;;;;19.92;9.10;;;;;;;20.07;100.00;102087.16;5111621;28;20410;-70
2023/07/18 07:38:22;;;;;;;17.98;9.15;;;;;;;20.22;100.00;102085.47;5110477;28;20362;-72
2023/07/18 07:40:49;;;;;;;18.45;8.55;;;;;;;20.28;100.00;102085.13;5109869;28;20540;-68
2023/07/18 07:43:14;;;;;;;25.90;9.88;;;;;;;20.42;100.00;102084.38;5096637;28;20034;-71
2023/07/18 07:45:40;;;;;;;23.08;8.90;;;;;;;20.66;100.00;102083.06;5109657;28;20023;-70
2023/07/18 07:48:05;;;;;;;23.90;9.05;;;;;;;20.79;100.00;102078.72;5109753;28;20409;-68
2023/07/18 07:50:33;;;;;;;20.10;8.23;;;;;;;20.94;100.00;102079.69;5109831;28;20027;-70
2023/07/18 07:52:58;;;;;;;16.67;8.52;;;;;;;20.99;100.00;102078.53;5106068;28;20016;-63
2023/07/18 07:55:24;;;;;;;19.15;8.55;;;;;;;21.25;100.00;102078.81;5110774;28;20038;-69
2023/07/18 07:57:49;;;;;;;18.20;8.88;;;;;;;20.76;100.00;102081.56;5108912;28;20030;-64
2023/07/18 08:00:15;;;;;;;18.35;7.93;;;;;;;21.24;100.00;102083.31;5108952;28;20385;-70
2023/07/18 08:02:40;;;;;;;19.88;9.23;;;;;;;21.65;100.00;102080.88;5106078;28;20076;-71
2023/07/18 08:05:06;;;;;;;22.60;9.23;;;;;;;21.60;100.00;102070.44;5108269;28;20016;-63
2023/07/18 08:07:32;;;;;;;23.50;8.75;;;;;;;21.41;100.00;102071.56;5108480;28;20019;-73
2023/07/18 08:09:57;;;;;;;21.05;8.13;;;;;;;21.12;100.00;102073.31;5101277;28;20024;-74
2023/07/18 08:12:23;;;;;;;20.25;9.18;;;;;;;21.27;100.00;102071.53;5107426;28;20055;-69
2023/07/18 08:14:48;;;;;;;21.85;8.38;;;;;;;21.31;100.00;102078.44;5117696;27;20703;-68
2023/07/18 08:17:14;;;;;;;17.80;8.60;;;;;;;21.55;100.00;102080.59;5111061;27;20028;-68
2023/07/18 08:19:40;;;;;;;18.35;7.85;;;;;;;21.57;100.00;102078.66;5109323;28;20030;-73
2023/07/18 08:22:05;;;;;;;16.20;7.95;;;;;;;21.46;100.00;102076.63;5109888;28;20169;-68
2023/07/18 08:24:30;;;;;;;20.00;7.75;;;;;;;21.25;100.00;102078.81;5109022;28;20027;-69
2023/07/18 08:26:57;;;;;;;23.13;8.68;;;;;;;21.12;100.00;102075.97;5107512;28;20031;-66
2023/07/18 08:29:24;;;;;;;20.77;9.50;;;;;;;21.00;100.00;102077.56;5106435;28;20026;-67
2023/07/18 08:31:51;;;;;;;21.17;8.70;;;;;;;20.96;100.00;102071.56;5107861;28;20019;-66
2023/07/18 08:34:17;;;;;;;14.48;7.82;;;;;;;20.92;100.00;102076.22;5110736;27;20113;-62
2023/07/18 08:36:43;;;;;;;19.40;8.88;;;;;;;20.71;100.00;102068.44;5107728;27;20107;-67
2023/07/18 08:39:08;;;;;;;22.48;8.15;;;;;;;20.99;100.00;102073.19;5115714;27;20529;-70
2023/07/18 08:41:34;;;;;;;21.52;7.68;;;;;;;21.10;100.00;102073.41;5108246;27;20072;-61
2023/07/18 08:44:00;;;;;;;19.65;6.95;;;;;;;21.30;100.00;102074.91;5110712;27;20027;-69
2023/07/18 08:46:25;;;;;;;13.70;6.40;;;;;;;21.29;100.00;102070.50;5111473;27;20011;-67
2023/07/18 08:48:50;;;;;;;18.23;6.65;;;;;;;21.51;100.00;102071.00;5114179;27;20080;-65
2023/07/18 08:51:16;;;;;;;14.52;6.13;;;;;;;21.69;100.00;102069.88;5109307;27;20035;-67
2023/07/18 08:53:42;;;;;;;18.55;7.03;;;;;;;21.85;100.00;102066.25;5109203;27;20021;-66
2023/07/18 08:56:10;;;;;;;12.52;5.95;;;;;;;22.01;100.00;102057.25;5112292;27;20041;-64
2023/07/18 08:58:37;;;;;;;14.00;6.80;;;;;;;22.06;100.00;102065.84;5112767;27;20023;-66
2023/07/18 09:01:03;;;;;;;17.08;7.43;;;;;;;22.17;100.00;102062.50;5116425;27;20047;-63
2023/07/18 09:03:28;;;;;;;19.85;6.72;;;;;;;22.35;100.00;102052.38;5109747;27;20024;-61
2023/07/18 09:05:54;;;;;;;13.48;6.70;;;;;;;22.51;100.00;102051.41;5108507;28;20081;-67
2023/07/18 09:08:21;;;;;;;15.07;7.13;;;;;;;22.68;100.00;102053.84;5108466;28;20012;-65
2023/07/18 09:10:47;;;;;;;22.60;6.75;;;;;;;22.91;100.00;102048.72;5108041;28;20016;-68
2023/07/18 09:13:12;;;;;;;15.27;6.05;;;;;;;23.01;99.19;102050.81;5118873;27;20043;-66
2023/07/18 09:15:38;;;;;;;16.02;6.05;;;;;;;22.99;100.00;102044.69;5087901;28;20114;-67
2023/07/18 09:18:05;;;;;;;13.30;5.93;;;;;;;22.84;100.00;102042.06;5089839;28;20090;-68
2023/07/18 09:20:32;;;;;;;13.20;5.60;;;;;;;22.95;98.88;102036.84;5107919;28;20026;-67
2023/07/18 09:22:59;;;;;;;12.05;6.13;;;;;;;22.79;100.00;102039.69;5108937;28;20028;-66
2023/07/18 09:25:25;;;;;;;13.75;6.47;;;;;;;22.85;100.00;102036.56;5102555;28;20032;-67
2023/07/18 09:27:52;;;;;;;12.20;5.18;;;;;;;22.99;99.05;102033.94;5105395;28;20093;-65
2023/07/18 09:30:36;;;;;;;15.90;5.53;;;;;;;23.05;96.98;102033.50;5103329;28;20098;-67
2023/07/18 09:33:06;;;;;;;15.45;5.03;;;;;;;23.40;95.57;102037.44;5092002;28;20024;-65
2023/07/18 09:35:36;;;;;;;10.77;4.15;;;;;;;23.62;93.71;102038.63;5106428;28;20015;-68
2023/07/18 09:38:02;;;;;;;10.68;4.45;;;;;;;23.78;93.11;102036.53;5105267;28;20016;-66
2023/07/18 09:40:28;;;;;;;14.43;5.32;;;;;;;23.58;94.48;102041.53;5100602;28;20034;-65
2023/07/18 09:42:53;;;;;;;12.60;4.88;;;;;;;23.54;92.82;102036.47;5108037;28;20043;-75
2023/07/18 09:45:20;;;;;;;15.73;4.93;;;;;;;23.37;94.65;102029.56;5106780;28;20114;-72
2023/07/18 09:47:45;;;;;;;10.02;4.30;;;;;;;23.48;94.68;102027.84;5107695;28;20026;-71
2023/07/18 09:50:12;;;;;;;10.65;4.05;;;;;;;23.56;94.19;102032.69;5109197;27;20075;-72
2023/07/18 09:52:51;;;;;;;12.50;4.20;;;;;;;23.69;92.86;102026.47;5095037;28;20044;-70
2023/07/18 09:55:27;;;;;;;11.32;4.38;;;;;;;23.89;92.85;102032.22;5107859;28;20068;-67
2023/07/18 09:57:54;;;;;;;14.68;4.72;;;;;;;23.92;92.95;102022.09;5107561;28;20019;-68
2023/07/18 10:00:20;;;;;;;10.23;4.00;;;;;;;23.75;94.91;102020.59;5103974;28;20043;-68
2023/07/18 10:02:45;;;;;;;12.05;4.07;;;;;;;24.03;93.15;102017.75;5105959;28;20027;-70
2023/07/18 10:05:11;;;;;;;15.20;4.10;;;;;;;24.05;92.28;102021.22;5107187;28;20467;-66
2023/07/18 10:07:38;;;;;;;11.05;4.18;;;;;;;24.31;89.73;102018.44;5086029;28;20051;-67
2023/07/18 10:10:08;;;;;;;12.98;4.38;;;;;;;24.35;90.35;102011.88;5108428;28;20442;-66
2023/07/18 10:12:38;;;;;;;13.88;4.93;;;;;;;24.37;88.80;102009.91;5105760;28;20085;-66
2023/07/18 10:15:04;;;;;;;13.48;4.60;;;;;;;24.54;88.99;102005.09;5108535;28;20093;-65
2023/07/18 10:17:39;;;;;;;13.40;3.97;;;;;;;24.46;88.73;101997.59;5109730;28;20092;-65
2023/07/18 10:20:31;;;;;;;11.43;4.15;;;;;;;24.47;87.79;102004.72;5105578;28;20058;-64
2023/07/18 10:22:58;;;;;;;8.48;3.00;;;;;;;24.58;83.69;101999.34;5108541;28;20527;-65
2023/07/18 10:25:29;;;;;;;8.77;3.13;;;;;;;24.70;81.62;101985.91;5110376;28;20064;-65
2023/07/18 10:27:54;;;;;;;12.27;3.35;;;;;;;24.69;83.33;101981.50;5111693;28;20042;-66
2023/07/18 10:30:21;;;;;;;12.75;4.00;;;;;;;24.49;85.53;101983.88;5110929;28;20019;-61
2023/07/18 10:32:54;;;;;;;9.68;3.97;;;;;;;24.61;83.76;101979.41;5111767;28;20030;-65
2023/07/18 10:35:21;;;;;;;8.25;3.47;;;;;;;24.51;84.31;101978.38;5111651;28;20046;-64
2023/07/18 10:37:55;;;;;;;9.18;3.45;;;;;;;24.32;83.43;101980.63;5112760;27;20023;-64
2023/07/18 10:40:39;;;;;;;7.20;3.17;;;;;;;24.36;82.09;101987.50;5105994;28;20107;-64
2023/07/18 10:43:09;;;;;;;15.32;3.55;;;;;;;24.34;85.53;101991.28;5090543;28;20028;-67
2023/07/18 10:45:39;;;;;;;15.60;4.32;;;;;;;24.43;83.36;101985.22;5089866;28;20027;-64
2023/07/18 10:48:18;;;;;;;10.60;3.67;;;;;;;24.43;79.59;101977.13;5090437;28;20074;-65
2023/07/18 10:50:45;;;;;;;13.27;3.15;;;;;;;24.54;79.81;101978.16;5091104;28;20476;-61
2023/07/18 10:53:15;;;;;;;8.38;3.97;;;;;;;24.84;80.22;101974.09;5091762;28;20040;-65
2023/07/18 10:55:41;;;;;;;10.40;3.35;;;;;;;25.04;79.36;101977.09;5101385;28;20041;-65
2023/07/18 10:58:11;;;;;;;15.35;3.70;;;;;;;24.96;76.46;101977.69;5111488;28;20019;-66
2023/07/18 11:00:37;;;;;;;9.73;3.65;;;;;;;25.06;76.88;101972.44;5095927;28;20574;-65
2023/07/18 11:03:02;;;;;;;8.68;2.60;;;;;;;25.24;74.05;101971.00;5110603;28;20028;-64
2023/07/18 11:05:28;;;;;;;11.00;3.05;;;;;;;25.07;75.20;101966.91;5109575;28;20106;-64
2023/07/18 11:07:53;;;;;;;10.80;4.00;;;;;;;25.04;75.65;101955.53;5111812;28;20518;-64
2023/07/18 11:10:19;;;;;;;19.30;14.07;;;;;;;25.35;74.96;101945.84;5104859;28;20035;-63